Time;durP1;ratioP1;P1;durP2;ratioP2;P2;SDS_P1;SDS_P2;PMS_P1;PMS_P2;Temp;Humidity;BMP_temperature;BMP_pressure;BME280_temperature;BME280_humidity;BME280_pressure;Samples;Min_cycle;Max_cycle;Signal;HPM_P1;HPM_P2
2023/04/25 00:00:17;;;;;;;5.43;2.90;;;8.80;99.90;;;;;;5185100;28;20641;-45
2023/04/25 00:02:48;;;;;;;3.30;2.57;;;8.80;99.90;;;;;;5197456;28;20243;-47
2023/04/25 00:05:19;;;;;;;3.53;2.33;;;8.80;99.90;;;;;;5182167;28;20427;-46
2023/04/25 00:07:51;;;;;;;5.00;2.10;;;8.80;99.90;;;;;;5182757;28;20471;-46
2023/04/25 00:10:21;;;;;;;2.00;2.00;;;8.90;99.90;;;;;;5186437;28;20485;-47
2023/04/25 00:12:52;;;;;;;2.23;2.03;;;8.90;99.90;;;;;;5187956;28;20799;-47
2023/04/25 00:15:24;;;;;;;3.80;1.70;;;9.00;99.90;;;;;;5190159;28;20263;-46
2023/04/25 00:17:54;;;;;;;4.30;2.13;;;9.10;99.90;;;;;;5187253;28;20921;-47
2023/04/25 00:20:25;;;;;;;6.70;1.97;;;9.20;99.90;;;;;;5188061;28;20453;-46
2023/04/25 00:22:55;;;;;;;9.50;2.10;;;9.10;99.90;;;;;;5186563;28;20199;-47
2023/04/25 00:25:26;;;;;;;1.83;1.53;;;9.10;99.90;;;;;;5170004;28;20215;-50
2023/04/25 00:27:57;;;;;;;2.90;1.77;;;9.00;99.90;;;;;;5177041;28;20720;-54
2023/04/25 00:30:27;;;;;;;2.47;2.03;;;9.00;99.90;;;;;;5184089;28;20549;-46
2023/04/25 00:32:58;;;;;;;2.40;2.23;;;9.00;99.90;;;;;;5185343;28;20229;-46
2023/04/25 00:35:29;;;;;;;2.50;2.13;;;8.90;99.90;;;;;;5186375;28;20484;-47
2023/04/25 00:37:59;;;;;;;6.77;2.20;;;9.00;99.90;;;;;;5169169;28;20347;-47
2023/04/25 00:40:30;;;;;;;9.00;2.77;;;9.00;99.90;;;;;;5185038;28;20188;-47
2023/04/25 00:43:01;;;;;;;2.63;2.40;;;9.10;99.90;;;;;;5199692;28;20298;-47
2023/04/25 00:45:32;;;;;;;3.43;2.20;;;9.20;99.90;;;;;;5179421;28;20648;-48
2023/04/25 00:48:04;;;;;;;2.97;1.80;;;9.10;99.90;;;;;;5182651;28;20216;-46
2023/04/25 00:50:36;;;;;;;7.37;1.70;;;9.00;99.90;;;;;;5184536;28;20442;-47
2023/04/25 00:53:09;;;;;;;4.33;2.50;;;9.10;99.90;;;;;;5183783;28;20484;-47
2023/04/25 00:55:40;;;;;;;2.63;2.47;;;9.00;99.90;;;;;;5184141;28;20451;-47
2023/04/25 00:58:11;;;;;;;4.77;2.00;;;9.00;99.90;;;;;;5183279;28;20872;-46
2023/04/25 01:00:42;;;;;;;3.00;1.83;;;9.00;99.90;;;;;;5183987;28;20184;-46
2023/04/25 01:03:15;;;;;;;10.47;1.97;;;8.90;99.90;;;;;;5184092;28;20188;-46
2023/04/25 01:05:47;;;;;;;2.80;2.10;;;8.90;99.90;;;;;;5182346;28;20793;-46
2023/04/25 01:08:18;;;;;;;3.53;1.80;;;8.90;99.90;;;;;;5182879;28;20505;-46
2023/04/25 01:10:48;;;;;;;5.23;2.20;;;8.90;99.90;;;;;;5188539;28;20534;-47
2023/04/25 01:13:19;;;;;;;7.17;2.30;;;8.90;99.90;;;;;;5200254;28;20659;-47
2023/04/25 01:15:50;;;;;;;2.30;2.10;;;8.90;99.90;;;;;;5185491;28;20542;-47
2023/04/25 01:18:21;;;;;;;5.83;2.77;;;8.90;99.90;;;;;;5183597;28;20562;-46
2023/04/25 01:20:52;;;;;;;4.80;2.80;;;8.90;99.90;;;;;;5183070;28;20207;-46
2023/04/25 01:23:23;;;;;;;3.33;2.63;;;8.90;99.90;;;;;;5183879;28;20462;-47
2023/04/25 01:25:54;;;;;;;4.30;2.17;;;9.00;99.90;;;;;;5185914;28;20447;-46
2023/04/25 01:28:25;;;;;;;5.83;2.70;;;9.00;99.90;;;;;;5184638;28;20462;-46
2023/04/25 01:30:57;;;;;;;5.03;2.87;;;9.00;99.90;;;;;;5182195;28;20446;-47
2023/04/25 01:33:29;;;;;;;3.10;2.30;;;9.00;99.90;;;;;;5184326;28;20644;-47
2023/04/25 01:35:59;;;;;;;6.10;2.43;;;9.00;99.90;;;;;;5185544;28;20442;-47
2023/04/25 01:38:31;;;;;;;3.90;2.20;;;9.00;99.90;;;;;;5183850;28;20458;-46
2023/04/25 01:41:02;;;;;;;4.20;2.00;;;9.00;99.90;;;;;;5183119;28;20203;-46
2023/04/25 01:43:33;;;;;;;6.10;2.50;;;9.10;99.90;;;;;;5185832;28;20518;-48
2023/04/25 01:46:04;;;;;;;4.33;2.80;;;9.00;99.90;;;;;;5187289;28;20442;-46
2023/04/25 01:48:34;;;;;;;4.53;2.90;;;9.00;99.90;;;;;;5187467;28;20303;-46
2023/04/25 01:51:05;;;;;;;7.87;3.17;;;8.90;99.90;;;;;;5185700;28;21054;-47
2023/04/25 01:53:36;;;;;;;4.43;2.47;;;8.90;99.90;;;;;;5182405;28;20279;-47
2023/04/25 01:56:06;;;;;;;3.20;2.90;;;9.00;99.90;;;;;;5184645;28;20298;-47
2023/04/25 01:58:37;;;;;;;2.93;2.20;;;9.00;99.90;;;;;;5185746;28;20212;-46
2023/04/25 02:01:08;;;;;;;6.87;2.57;;;9.00;99.90;;;;;;5186272;28;20176;-48
2023/04/25 02:03:38;;;;;;;4.40;2.23;;;9.20;99.90;;;;;;5185646;28;20188;-47
2023/04/25 02:06:09;;;;;;;2.40;2.17;;;9.20;99.90;;;;;;5187657;28;20243;-48
2023/04/25 02:08:40;;;;;;;6.23;3.10;;;9.20;99.90;;;;;;5190241;28;20204;-47
2023/04/25 02:11:10;;;;;;;6.73;2.57;;;9.10;99.90;;;;;;5185088;28;20267;-47
2023/04/25 02:13:41;;;;;;;11.63;3.10;;;9.20;99.90;;;;;;5185358;28;20187;-47
2023/04/25 02:16:11;;;;;;;3.20;2.43;;;9.20;99.90;;;;;;5184354;28;20257;-47
2023/04/25 02:18:42;;;;;;;2.63;2.43;;;9.20;99.90;;;;;;5180152;28;20262;-47
2023/04/25 02:21:12;;;;;;;5.87;2.70;;;9.20;99.90;;;;;;5184303;28;20264;-47
2023/04/25 02:23:45;;;;;;;4.43;3.07;;;9.30;99.90;;;;;;5185266;28;20196;-45
2023/04/25 02:26:16;;;;;;;3.50;3.20;;;9.20;99.90;;;;;;5183883;28;20176;-46
2023/04/25 02:28:46;;;;;;;2.67;2.47;;;9.10;99.90;;;;;;5187248;28;20541;-46
2023/04/25 02:31:17;;;;;;;3.30;2.60;;;9.00;99.90;;;;;;5164916;28;20208;-47
2023/04/25 02:33:48;;;;;;;3.60;2.80;;;9.00;99.90;;;;;;5182812;28;20184;-45
2023/04/25 02:36:19;;;;;;;5.30;3.30;;;9.00;99.90;;;;;;5182944;28;20180;-46
2023/04/25 02:38:50;;;;;;;3.30;3.00;;;8.90;99.90;;;;;;5184708;28;20933;-47
2023/04/25 02:41:20;;;;;;;2.70;2.50;;;8.90;99.90;;;;;;5183711;28;20633;-46
2023/04/25 02:43:51;;;;;;;7.83;3.40;;;9.10;99.90;;;;;;5181524;28;20451;-46
2023/04/25 02:46:21;;;;;;;3.90;3.00;;;9.10;99.90;;;;;;5181569;28;20665;-48
2023/04/25 02:48:52;;;;;;;2.70;2.60;;;9.00;99.90;;;;;;5180138;28;20247;-46
2023/04/25 02:51:23;;;;;;;5.03;2.60;;;9.00;99.90;;;;;;5181723;28;20208;-47
2023/04/25 02:53:53;;;;;;;13.20;2.80;;;9.00;99.90;;;;;;5183334;28;20191;-46
2023/04/25 02:56:25;;;;;;;3.07;2.77;;;9.00;99.90;;;;;;5180985;28;20280;-46
2023/04/25 02:58:56;;;;;;;6.50;3.13;;;9.00;99.90;;;;;;5180841;28;20204;-46
2023/04/25 03:01:27;;;;;;;6.10;3.50;;;9.00;99.90;;;;;;5183394;28;20447;-46
2023/04/25 03:03:57;;;;;;;3.03;2.83;;;8.90;99.90;;;;;;5181796;28;20200;-47
2023/04/25 03:06:28;;;;;;;6.20;3.20;;;8.90;99.90;;;;;;5181982;28;20235;-48
2023/04/25 03:08:58;;;;;;;10.43;2.80;;;8.90;99.90;;;;;;5185231;28;20224;-46
2023/04/25 03:11:29;;;;;;;3.33;3.03;;;8.90;99.90;;;;;;5181341;28;20866;-47
2023/04/25 03:14:00;;;;;;;3.67;3.37;;;8.90;99.90;;;;;;5197299;28;20191;-47
2023/04/25 03:16:30;;;;;;;5.97;3.07;;;8.90;99.90;;;;;;5180771;28;20184;-47
2023/04/25 03:19:01;;;;;;;10.03;4.60;;;8.90;99.90;;;;;;5162655;28;20200;-47
2023/04/25 03:21:34;;;;;;;4.67;2.70;;;8.90;99.90;;;;;;5185028;28;20200;-45
2023/04/25 03:24:05;;;;;;;2.87;2.47;;;8.90;99.90;;;;;;5187785;28;20944;-46
2023/04/25 03:26:36;;;;;;;5.73;3.33;;;8.90;99.90;;;;;;5186127;28;20459;-47
2023/04/25 03:29:06;;;;;;;5.60;2.90;;;8.90;99.90;;;;;;5186441;28;20534;-46
2023/04/25 03:31:37;;;;;;;10.87;3.47;;;9.00;99.90;;;;;;5182540;28;20203;-47
2023/04/25 03:34:08;;;;;;;5.17;2.93;;;9.00;99.90;;;;;;5183885;28;20195;-47
2023/04/25 03:36:38;;;;;;;3.93;2.90;;;9.00;99.90;;;;;;5181420;28;20193;-46
2023/04/25 03:39:09;;;;;;;3.90;3.60;;;9.00;99.90;;;;;;5185166;28;20222;-47
2023/04/25 03:41:39;;;;;;;3.40;2.70;;;9.00;99.90;;;;;;5182616;28;20657;-47
2023/04/25 03:44:10;;;;;;;3.47;2.63;;;9.00;99.90;;;;;;5179139;28;20193;-47
2023/04/25 03:46:41;;;;;;;7.50;3.90;;;9.00;99.90;;;;;;5186073;28;20208;-47
2023/04/25 03:49:11;;;;;;;8.97;3.57;;;9.00;99.90;;;;;;5187375;28;20583;-46
2023/04/25 03:51:42;;;;;;;4.73;3.93;;;9.00;99.90;;;;;;5187932;28;20192;-47
2023/04/25 03:54:12;;;;;;;4.60;3.63;;;9.00;99.90;;;;;;5188160;28;20251;-45
2023/04/25 03:56:43;;;;;;;5.80;3.77;;;8.90;99.90;;;;;;5186608;28;20220;-47
2023/04/25 03:59:14;;;;;;;4.83;4.17;;;9.00;99.90;;;;;;5186959;28;20211;-46
2023/04/25 04:01:44;;;;;;;3.60;3.30;;;9.00;99.90;;;;;;5170287;28;20206;-49
2023/04/25 04:04:15;;;;;;;14.87;4.10;;;9.00;99.90;;;;;;5187344;28;20191;-46
2023/04/25 04:06:46;;;;;;;14.17;3.70;;;9.00;99.90;;;;;;5187302;28;20686;-47
2023/04/25 04:09:16;;;;;;;11.53;3.70;;;8.90;99.90;;;;;;5187599;28;20219;-47
2023/04/25 04:11:47;;;;;;;4.77;3.70;;;8.90;99.90;;;;;;5185562;28;20401;-48
2023/04/25 04:14:19;;;;;;;7.63;4.40;;;8.80;99.90;;;;;;5187746;28;20196;-47
2023/04/25 04:16:52;;;;;;;16.80;4.20;;;8.90;99.90;;;;;;5181167;28;20436;-47
2023/04/25 04:19:22;;;;;;;7.83;3.47;;;9.00;99.90;;;;;;5185087;28;20208;-48
2023/04/25 04:21:53;;;;;;;5.93;3.90;;;8.90;99.90;;;;;;5187560;28;20442;-47
2023/04/25 04:24:23;;;;;;;3.23;2.90;;;9.00;99.90;;;;;;5187568;28;21350;-48
2023/04/25 04:26:54;;;;;;;11.33;3.73;;;9.00;99.90;;;;;;5184766;28;20188;-48
2023/04/25 04:29:25;;;;;;;8.60;4.30;;;8.90;99.90;;;;;;5187953;28;20216;-47
2023/04/25 04:31:56;;;;;;;7.47;3.63;;;9.00;99.90;;;;;;5187592;28;20990;-46
2023/04/25 04:34:26;;;;;;;9.00;4.70;;;8.90;99.90;;;;;;5183586;28;20195;-47
2023/04/25 04:36:57;;;;;;;10.37;3.93;;;8.90;99.90;;;;;;5184847;28;20193;-46
2023/04/25 04:39:28;;;;;;;3.80;3.50;;;9.00;99.90;;;;;;5184453;28;20200;-47
2023/04/25 04:42:01;;;;;;;10.50;4.90;;;9.00;99.90;;;;;;5186854;28;20303;-47
2023/04/25 04:44:35;;;;;;;13.90;4.37;;;9.00;99.90;;;;;;5186146;28;20454;-47
2023/04/25 04:47:05;;;;;;;7.37;4.10;;;9.00;99.90;;;;;;5185833;28;20450;-47
2023/04/25 04:49:36;;;;;;;9.13;4.17;;;9.10;99.90;;;;;;5186504;28;20450;-47
2023/04/25 04:52:07;;;;;;;6.57;3.83;;;9.20;99.90;;;;;;5186494;28;20319;-46
2023/04/25 04:54:37;;;;;;;5.27;3.97;;;9.20;99.90;;;;;;5186817;28;20218;-47
2023/04/25 04:57:08;;;;;;;16.87;4.63;;;9.30;99.90;;;;;;5203090;28;20267;-46
2023/04/25 04:59:38;;;;;;;4.37;3.40;;;9.20;99.90;;;;;;5185700;28;20494;-47
2023/04/25 05:02:09;;;;;;;7.93;3.87;;;9.30;99.90;;;;;;5186595;28;20204;-46
2023/04/25 05:04:40;;;;;;;5.77;3.33;;;9.30;99.90;;;;;;5186352;28;20181;-47
2023/04/25 05:07:11;;;;;;;12.17;4.40;;;9.30;99.90;;;;;;5187261;28;20488;-47
2023/04/25 05:09:42;;;;;;;9.10;3.87;;;9.30;99.90;;;;;;5185975;28;20204;-48
2023/04/25 05:12:12;;;;;;;10.40;3.50;;;9.40;99.90;;;;;;5186006;28;20180;-47
2023/04/25 05:14:43;;;;;;;5.77;3.23;;;9.40;99.90;;;;;;5202214;28;20275;-47
2023/04/25 05:17:14;;;;;;;7.57;3.60;;;9.50;99.90;;;;;;5188619;28;20236;-48
2023/04/25 05:19:44;;;;;;;5.40;3.60;;;9.50;99.90;;;;;;5177351;28;20188;-47
2023/04/25 05:22:15;;;;;;;4.80;3.50;;;9.40;99.90;;;;;;5184631;28;20184;-47
2023/04/25 05:24:45;;;;;;;14.83;4.10;;;9.40;99.90;;;;;;5186648;28;20208;-48
2023/04/25 05:27:17;;;;;;;5.60;3.77;;;9.50;99.90;;;;;;5197579;28;20193;-46
2023/04/25 05:29:48;;;;;;;5.90;3.60;;;9.50;99.90;;;;;;5186564;28;20195;-46
2023/04/25 05:32:19;;;;;;;6.70;4.03;;;9.60;99.90;;;;;;5178167;28;20435;-46
2023/04/25 05:34:49;;;;;;;6.77;3.70;;;9.60;99.90;;;;;;5181563;28;20188;-47
2023/04/25 05:37:20;;;;;;;9.47;4.20;;;9.60;99.90;;;;;;5178387;28;20181;-48
2023/04/25 05:39:51;;;;;;;11.00;3.37;;;9.60;99.90;;;;;;5178027;28;20551;-48
2023/04/25 05:42:21;;;;;;;9.77;4.20;;;9.60;99.90;;;;;;5187929;28;20273;-48
2023/04/25 05:44:52;;;;;;;6.33;3.40;;;9.50;99.90;;;;;;5182763;28;20558;-47
2023/04/25 05:47:23;;;;;;;9.23;3.40;;;9.40;99.90;;;;;;5187116;28;20181;-48
2023/04/25 05:49:53;;;;;;;9.50;3.60;;;9.30;99.90;;;;;;5186540;28;20181;-47
2023/04/25 05:52:24;;;;;;;10.10;4.50;;;9.40;99.90;;;;;;5185626;28;20184;-47
2023/04/25 05:54:55;;;;;;;4.60;4.10;;;9.40;99.90;;;;;;5182781;28;20192;-49
2023/04/25 05:57:27;;;;;;;11.93;4.00;;;9.40;99.90;;;;;;5183369;28;20472;-47
2023/04/25 05:59:57;;;;;;;9.13;4.70;;;9.50;99.90;;;;;;5177419;28;20186;-49
2023/04/25 06:02:28;;;;;;;5.93;4.13;;;9.40;99.90;;;;;;5174566;28;20439;-47
2023/04/25 06:04:59;;;;;;;11.40;5.00;;;9.50;99.90;;;;;;5174558;28;20188;-47
2023/04/25 06:07:30;;;;;;;7.40;4.20;;;9.60;99.90;;;;;;5173871;28;22041;-48
2023/04/25 06:10:01;;;;;;;7.07;4.10;;;9.50;99.90;;;;;;5176457;28;20199;-47
2023/04/25 06:12:33;;;;;;;12.30;4.50;;;9.50;99.90;;;;;;5180670;28;20431;-47
2023/04/25 06:15:04;;;;;;;5.63;3.90;;;9.50;99.90;;;;;;5180936;28;20435;-47
2023/04/25 06:17:35;;;;;;;10.27;4.40;;;9.50;99.90;;;;;;5179810;28;20936;-46
2023/04/25 06:20:06;;;;;;;8.73;4.40;;;9.60;99.90;;;;;;5177800;28;23739;-48
2023/04/25 06:22:37;;;;;;;4.53;3.90;;;9.70;99.90;;;;;;5177137;28;20199;-47
2023/04/25 06:25:07;;;;;;;6.63;4.90;;;9.80;99.90;;;;;;5178738;28;20444;-47
2023/04/25 06:27:38;;;;;;;12.67;4.80;;;9.80;99.90;;;;;;5160097;28;20295;-48
2023/04/25 06:30:11;;;;;;;7.77;4.50;;;9.80;99.90;;;;;;5175089;28;20180;-47
2023/04/25 06:32:41;;;;;;;13.20;4.20;;;9.90;99.90;;;;;;5175164;28;20637;-48
2023/04/25 06:35:12;;;;;;;4.70;4.30;;;9.80;99.90;;;;;;5175197;28;20438;-47
2023/04/25 06:37:43;;;;;;;6.70;4.43;;;9.80;99.90;;;;;;5170460;28;20335;-45
2023/04/25 06:40:14;;;;;;;5.50;4.30;;;9.70;99.90;;;;;;5192958;28;20498;-46
2023/04/25 06:42:45;;;;;;;6.80;3.70;;;9.70;99.90;;;;;;5180573;28;20268;-47
2023/04/25 06:45:16;;;;;;;12.60;4.20;;;9.70;99.90;;;;;;5175790;28;20530;-46
2023/04/25 06:47:46;;;;;;;8.17;4.07;;;9.80;99.90;;;;;;5172850;28;20240;-47
2023/04/25 06:50:17;;;;;;;6.93;3.97;;;9.80;99.90;;;;;;5183435;28;20180;-46
2023/04/25 06:52:47;;;;;;;8.67;4.00;;;9.80;99.90;;;;;;5183567;28;20665;-46
2023/04/25 06:55:18;;;;;;;6.63;3.50;;;9.80;99.90;;;;;;5177121;28;20594;-46
2023/04/25 06:57:48;;;;;;;9.73;4.30;;;9.80;99.90;;;;;;5182346;28;20378;-46
2023/04/25 07:00:20;;;;;;;7.20;4.07;;;9.80;99.90;;;;;;5176517;28;20208;-45
2023/04/25 07:02:51;;;;;;;5.80;4.43;;;9.70;99.90;;;;;;5175653;28;20184;-47
2023/04/25 07:05:21;;;;;;;6.63;4.20;;;9.60;99.90;;;;;;5180427;28;20434;-46
2023/04/25 07:07:52;;;;;;;4.70;3.40;;;9.60;99.90;;;;;;5181064;28;20463;-47
2023/04/25 07:10:23;;;;;;;14.27;4.43;;;9.70;99.90;;;;;;5180087;28;20246;-46
2023/04/25 07:12:53;;;;;;;6.27;4.00;;;9.60;99.90;;;;;;5181835;28;20435;-46
2023/04/25 07:15:24;;;;;;;7.77;3.90;;;9.40;99.90;;;;;;5178887;28;20195;-46
2023/04/25 07:17:55;;;;;;;5.67;3.97;;;9.40;99.90;;;;;;5161999;28;20253;-47
2023/04/25 07:20:27;;;;;;;6.93;3.87;;;9.40;99.90;;;;;;5176994;28;20196;-46
2023/04/25 07:22:58;;;;;;;4.57;3.23;;;9.30;99.90;;;;;;5178106;28;20192;-48
2023/04/25 07:25:28;;;;;;;6.60;4.13;;;9.30;99.90;;;;;;5177075;28;20442;-46
2023/04/25 07:27:59;;;;;;;8.60;3.40;;;9.20;99.90;;;;;;5180904;28;20228;-46
2023/04/25 07:30:30;;;;;;;8.57;3.70;;;9.20;99.90;;;;;;5177214;28;20196;-49
2023/04/25 07:33:01;;;;;;;14.67;4.87;;;9.40;99.90;;;;;;5177285;28;20195;-46
2023/04/25 07:35:31;;;;;;;10.03;3.70;;;9.60;99.90;;;;;;5175741;28;20842;-47
2023/04/25 07:38:03;;;;;;;21.47;9.87;;;9.60;99.90;;;;;;5178076;28;20215;-46
2023/04/25 07:40:35;;;;;;;11.20;3.80;;;9.90;99.90;;;;;;5173626;28;20223;-47
2023/04/25 07:43:05;;;;;;;7.40;3.43;;;9.90;99.90;;;;;;5167699;28;20458;-46
2023/04/25 07:45:36;;;;;;;6.23;3.13;;;10.00;99.90;;;;;;5181143;28;20431;-47
2023/04/25 07:48:06;;;;;;;12.27;5.07;;;10.20;99.90;;;;;;5180999;28;20299;-48
2023/04/25 07:50:37;;;;;;;6.43;3.17;;;10.30;99.90;;;;;;5180432;28;20807;-48
2023/04/25 07:53:08;;;;;;;10.53;3.33;;;10.30;99.90;;;;;;5181713;28;20194;-47
2023/04/25 07:55:40;;;;;;;7.40;3.93;;;10.30;99.90;;;;;;5176185;28;20200;-47
2023/04/25 07:58:11;;;;;;;19.47;3.97;;;10.20;99.90;;;;;;5176473;28;20451;-47
2023/04/25 08:00:42;;;;;;;6.70;3.50;;;10.00;99.90;;;;;;5173613;28;20435;-47
2023/04/25 08:03:12;;;;;;;9.50;3.97;;;10.00;99.90;;;;;;5177140;28;20461;-48
2023/04/25 08:05:43;;;;;;;13.17;4.17;;;10.10;99.90;;;;;;5165578;28;20185;-48
2023/04/25 08:08:14;;;;;;;14.43;4.80;;;10.10;99.90;;;;;;5181264;28;20211;-47
2023/04/25 08:10:44;;;;;;;9.00;3.80;;;9.90;99.90;;;;;;5177159;28;20279;-48
2023/04/25 08:13:15;;;;;;;15.93;4.17;;;9.80;99.90;;;;;;5180141;28;20239;-47
2023/04/25 08:15:46;;;;;;;16.57;4.23;;;9.90;99.90;;;;;;5164360;28;20212;-47
2023/04/25 08:18:18;;;;;;;14.30;3.90;;;10.00;99.90;;;;;;5180985;28;20281;-47
2023/04/25 08:20:48;;;;;;;11.10;4.43;;;10.10;99.90;;;;;;5179897;28;20254;-47
2023/04/25 08:23:19;;;;;;;12.10;4.77;;;10.20;99.90;;;;;;5181399;28;20434;-46
2023/04/25 08:25:49;;;;;;;20.33;3.80;;;10.40;99.90;;;;;;5178462;28;20267;-47
2023/04/25 08:28:20;;;;;;;18.23;5.40;;;10.70;99.90;;;;;;5179594;28;20216;-46
2023/04/25 08:30:51;;;;;;;14.63;4.03;;;10.80;99.90;;;;;;5182098;28;20191;-47
2023/04/25 08:33:21;;;;;;;10.03;3.60;;;11.30;99.90;;;;;;5180318;28;20267;-47
2023/04/25 08:35:52;;;;;;;17.53;4.13;;;11.70;99.90;;;;;;5178937;28;20667;-46
2023/04/25 08:38:23;;;;;;;15.47;4.70;;;11.90;99.90;;;;;;5163177;28;20216;-47
2023/04/25 08:40:55;;;;;;;7.60;3.67;;;11.70;98.80;;;;;;5177859;28;20803;-47
2023/04/25 08:43:26;;;;;;;9.43;3.20;;;11.40;95.30;;;;;;5174646;28;20191;-47
2023/04/25 08:46:00;;;;;;;13.20;4.17;;;11.50;95.30;;;;;;5190211;28;20451;-50
2023/04/25 08:48:34;;;;;;;10.50;3.40;;;11.50;94.30;;;;;;5172632;28;20223;-46
2023/04/25 08:51:07;;;;;;;11.63;4.23;;;11.50;93.50;;;;;;5178106;28;20470;-47
2023/04/25 08:53:42;;;;;;;14.13;3.77;;;11.50;92.90;;;;;;5179831;28;20463;-46
2023/04/25 08:56:17;;;;;;;15.13;4.03;;;11.30;92.40;;;;;;5176335;28;20903;-46
2023/04/25 08:58:50;;;;;;;9.40;3.50;;;11.50;92.10;;;;;;5175982;28;20461;-47
2023/04/25 09:01:21;;;;;;;12.30;3.67;;;12.20;89.80;;;;;;5180566;28;20485;-46
2023/04/25 09:03:51;;;;;;;7.60;3.03;;;12.50;80.80;;;;;;5178241;28;21226;-46
2023/04/25 09:06:23;;;;;;;13.77;2.80;;;12.60;77.90;;;;;;5177242;28;20311;-45
2023/04/25 09:08:54;;;;;;;9.40;2.60;;;12.60;71.30;;;;;;5172853;28;20212;-46
2023/04/25 09:11:24;;;;;;;8.60;2.23;;;13.00;69.40;;;;;;5176804;28;20439;-46
2023/04/25 09:14:20;;;;;;;16.03;6.03;;;13.20;66.80;;;;;;5180675;28;20189;-47
2023/04/25 09:17:02;;;;;;;22.73;3.73;;;13.20;67.00;;;;;;5196218;28;20602;-46
2023/04/25 09:19:35;;;;;;;18.00;3.67;;;13.30;64.20;;;;;;5173441;28;20475;-47
2023/04/25 09:22:07;;;;;;;5.80;2.40;;;13.20;62.10;;;;;;5182644;28;20510;-47
2023/04/25 09:24:45;;;;;;;6.20;2.83;;;13.40;60.80;;;;;;5177025;28;20971;-47
2023/04/25 09:27:24;;;;;;;8.30;2.30;;;14.00;59.10;;;;;;5176543;28;20472;-47
2023/04/25 09:30:00;;;;;;;6.47;2.37;;;14.20;55.70;;;;;;5172482;28;20443;-47
2023/04/25 09:32:31;;;;;;;13.67;3.30;;;14.50;53.60;;;;;;5178405;28;20423;-46
2023/04/25 09:35:01;;;;;;;11.50;3.60;;;14.40;52.30;;;;;;5174796;28;20431;-48
2023/04/25 09:37:32;;;;;;;16.70;3.73;;;14.00;52.20;;;;;;5191114;28;20203;-47
2023/04/25 09:40:07;;;;;;;5.00;2.73;;;13.80;52.90;;;;;;5179539;28;20184;-46
2023/04/25 09:42:41;;;;;;;11.40;3.37;;;13.10;52.90;;;;;;5178413;28;20579;-47
2023/04/25 09:45:15;;;;;;;8.57;2.87;;;13.10;54.20;;;;;;5175494;28;20478;-46
2023/04/25 09:47:45;;;;;;;4.53;2.40;;;12.50;52.30;;;;;;5172121;28;20474;-46
2023/04/25 09:50:19;;;;;;;11.20;2.40;;;12.10;51.50;;;;;;5176465;28;20442;-47
2023/04/25 09:53:04;;;;;;;8.03;2.37;;;12.00;51.70;;;;;;5178097;28;20664;-48
2023/04/25 09:55:36;;;;;;;18.43;3.10;;;12.30;51.90;;;;;;5177823;28;20593;-47
2023/04/25 09:58:08;;;;;;;6.07;2.13;;;12.30;52.20;;;;;;5179430;28;20501;-46
2023/04/25 10:00:41;;;;;;;7.47;2.70;;;12.50;51.30;;;;;;5178047;28;20479;-46
2023/04/25 10:03:12;;;;;;;6.23;2.67;;;12.80;50.60;;;;;;5181348;28;20436;-47
2023/04/25 10:05:44;;;;;;;14.63;2.53;;;13.10;50.40;;;;;;5175617;28;20447;-46
2023/04/25 10:08:16;;;;;;;10.63;3.43;;;13.30;49.50;;;;;;5176804;28;21062;-47
2023/04/25 10:10:48;;;;;;;12.23;2.70;;;13.50;49.50;;;;;;5180714;28;20462;-57
2023/04/25 10:13:20;;;;;;;3.70;2.90;;;13.50;48.00;;;;;;5181890;28;20435;-47
2023/04/25 10:15:53;;;;;;;10.20;2.40;;;13.50;48.10;;;;;;5179996;28;21184;-47
2023/04/25 10:18:26;;;;;;;5.50;2.47;;;13.50;48.20;;;;;;5179530;28;20466;-47
2023/04/25 10:21:02;;;;;;;12.97;2.10;;;13.60;47.60;;;;;;5190202;28;22262;-46
2023/04/25 10:23:36;;;;;;;9.47;2.80;;;13.60;47.30;;;;;;5179272;28;20470;-47
2023/04/25 10:26:12;;;;;;;9.03;2.23;;;13.50;47.40;;;;;;5185387;28;20806;-47
2023/04/25 10:29:01;;;;;;;3.83;2.30;;;13.60;46.80;;;;;;5181512;28;20497;-48
2023/04/25 10:31:32;;;;;;;4.30;1.93;;;13.50;46.30;;;;;;5183781;28;20431;-49
2023/04/25 10:34:05;;;;;;;10.80;3.43;;;13.60;46.70;;;;;;5182616;28;20415;-47
2023/04/25 10:36:37;;;;;;;4.43;2.07;;;13.50;46.00;;;;;;5180846;28;20576;-48
2023/04/25 10:39:09;;;;;;;7.30;3.13;;;13.00;45.80;;;;;;5182108;28;20492;-48
2023/04/25 10:41:47;;;;;;;7.13;2.97;;;12.80;46.60;;;;;;5182981;28;20513;-46
2023/04/25 10:44:18;;;;;;;3.37;2.10;;;12.60;46.60;;;;;;5179161;28;20953;-47
2023/04/25 10:46:49;;;;;;;7.53;2.90;;;12.60;46.70;;;;;;5186624;28;20546;-48
2023/04/25 10:49:32;;;;;;;5.70;2.77;;;12.90;47.20;;;;;;5182063;28;20223;-47
2023/04/25 10:52:24;;;;;;;5.40;2.33;;;13.20;47.00;;;;;;5181716;28;20193;-48
2023/04/25 10:54:56;;;;;;;6.67;3.00;;;13.40;46.20;;;;;;5196211;28;20862;-48
2023/04/25 10:57:39;;;;;;;6.50;2.17;;;13.20;44.50;;;;;;5181704;28;20482;-49
2023/04/25 11:00:18;;;;;;;3.80;1.70;;;12.70;44.00;;;;;;5176454;28;20489;-49
2023/04/25 11:02:52;;;;;;;8.03;3.33;;;12.70;44.80;;;;;;5178990;28;20900;-49
2023/04/25 11:05:31;;;;;;;1.70;1.60;;;13.00;44.30;;;;;;5174798;28;20445;-48
2023/04/25 11:08:06;;;;;;;6.03;2.70;;;13.20;44.40;;;;;;5165230;28;20515;-49
2023/04/25 11:10:39;;;;;;;11.77;3.90;;;13.50;44.40;;;;;;5180423;28;20457;-47
2023/04/25 11:13:10;;;;;;;18.33;7.23;;;13.80;43.60;;;;;;5178632;28;20427;-48
2023/04/25 11:15:40;;;;;;;7.77;3.53;;;13.70;43.40;;;;;;5175580;28;20453;-47
2023/04/25 11:18:16;;;;;;;9.37;3.33;;;13.20;43.90;;;;;;5174469;28;20208;-47
2023/04/25 11:20:49;;;;;;;8.60;3.20;;;12.50;45.60;;;;;;5178225;28;20184;-46
2023/04/25 11:23:19;;;;;;;8.83;4.07;;;12.20;46.10;;;;;;5178000;28;20450;-47
2023/04/25 11:25:52;;;;;;;10.20;1.97;;;11.80;46.50;;;;;;5180894;28;20443;-46
2023/04/25 11:28:23;;;;;;;6.17;2.57;;;11.50;46.70;;;;;;5177188;28;20294;-48
2023/04/25 11:30:53;;;;;;;8.00;2.10;;;11.50;47.30;;;;;;5178822;28;20506;-48
2023/04/25 11:33:25;;;;;;;6.00;1.80;;;11.50;46.50;;;;;;5195329;28;20270;-47
2023/04/25 11:35:56;;;;;;;7.63;2.40;;;11.40;45.80;;;;;;5196876;28;20184;-46
2023/04/25 11:38:27;;;;;;;6.00;1.60;;;11.50;46.50;;;;;;5182351;28;20477;-48
2023/04/25 11:40:58;;;;;;;5.87;2.43;;;11.60;45.50;;;;;;5194017;28;20195;-48
2023/04/25 11:43:28;;;;;;;11.70;3.87;;;11.50;44.80;;;;;;5175769;28;20200;-46
2023/04/25 11:45:59;;;;;;;10.43;3.07;;;11.60;45.50;;;;;;5177868;28;20444;-46
2023/04/25 11:48:46;;;;;;;4.77;2.23;;;11.80;44.70;;;;;;5170487;28;20299;-47
2023/04/25 11:51:17;;;;;;;9.43;2.57;;;11.80;44.50;;;;;;5176563;28;20187;-46
2023/04/25 11:53:47;;;;;;;10.33;5.20;;;12.10;45.10;;;;;;5173943;28;20940;-47
2023/04/25 11:56:18;;;;;;;5.73;1.87;;;12.60;44.10;;;;;;5174806;28;20243;-46
2023/04/25 11:59:00;;;;;;;5.23;2.40;;;12.50;43.00;;;;;;5173316;28;20219;-47
2023/04/25 12:01:36;;;;;;;5.90;2.00;;;12.90;43.40;;;;;;5172476;28;20218;-47
2023/04/25 12:04:14;;;;;;;4.83;2.50;;;12.90;43.10;;;;;;5174922;28;20939;-47
2023/04/25 12:06:47;;;;;;;4.50;2.67;;;12.50;43.50;;;;;;5183972;28;20449;-46
2023/04/25 12:09:23;;;;;;;4.53;2.40;;;12.60;43.70;;;;;;5176334;28;20502;-46
2023/04/25 12:11:55;;;;;;;4.47;2.47;;;12.70;44.40;;;;;;5179154;28;20444;-47
2023/04/25 12:14:31;;;;;;;5.87;3.20;;;13.00;43.60;;;;;;5185257;28;20482;-46
2023/04/25 12:17:03;;;;;;;7.47;2.23;;;13.00;43.70;;;;;;5175340;28;20438;-46
2023/04/25 12:19:36;;;;;;;8.47;2.50;;;13.00;43.50;;;;;;5195977;28;20798;-46
2023/04/25 12:22:24;;;;;;;9.43;5.07;;;12.70;43.40;;;;;;5182406;28;20430;-46
2023/04/25 12:24:56;;;;;;;3.50;2.13;;;12.50;44.20;;;;;;5178802;28;20455;-45
2023/04/25 12:27:27;;;;;;;3.50;2.13;;;12.30;44.50;;;;;;5175131;28;20964;-48
2023/04/25 12:29:58;;;;;;;9.87;3.90;;;12.30;44.00;;;;;;5179782;28;20443;-47
2023/04/25 12:32:28;;;;;;;11.30;2.63;;;12.20;43.10;;;;;;5178622;28;20200;-45
2023/04/25 12:34:59;;;;;;;4.17;2.60;;;12.10;42.90;;;;;;5180127;28;21615;-46
2023/04/25 12:37:30;;;;;;;4.10;2.60;;;12.10;42.80;;;;;;5182715;28;20216;-48
2023/04/25 12:40:01;;;;;;;5.57;4.00;;;12.20;42.50;;;;;;5181844;28;20180;-47
2023/04/25 12:42:32;;;;;;;6.90;2.50;;;12.30;42.30;;;;;;5175892;28;20557;-46
2023/04/25 12:45:02;;;;;;;13.00;2.90;;;12.60;41.90;;;;;;5177551;28;20559;-47
2023/04/25 12:47:35;;;;;;;4.27;2.93;;;12.70;41.80;;;;;;5180888;28;20208;-49
2023/04/25 12:50:05;;;;;;;7.17;2.30;;;12.80;41.60;;;;;;5177643;28;20184;-47
2023/04/25 12:52:36;;;;;;;5.40;2.00;;;12.60;42.20;;;;;;5183080;28;21013;-48
2023/04/25 12:55:07;;;;;;;5.37;2.23;;;12.50;42.60;;;;;;5180386;28;20259;-46
2023/04/25 12:57:37;;;;;;;4.43;1.57;;;12.70;42.60;;;;;;5177111;28;20298;-45
2023/04/25 13:00:09;;;;;;;9.50;2.27;;;13.20;42.50;;;;;;5179535;28;20283;-46
2023/04/25 13:02:40;;;;;;;5.73;1.80;;;13.50;42.20;;;;;;5175037;28;20185;-46
2023/04/25 13:05:11;;;;;;;2.20;1.70;;;13.30;40.50;;;;;;5176767;28;20834;-51
2023/04/25 13:07:42;;;;;;;3.10;1.20;;;12.90;40.30;;;;;;5179957;28;20213;-48
2023/04/25 13:10:12;;;;;;;3.67;1.60;;;12.60;39.00;;;;;;5190931;28;20299;-46
2023/04/25 13:12:43;;;;;;;1.60;1.50;;;12.30;39.80;;;;;;5178027;28;20192;-47